sensor_id;sensor_type;location;lat;lon;timestamp;P1;durP1;ratioP1;P2;durP2;ratioP2
37847;SDS011;23688;33.130;-117.188;2023-12-29T00:02:04;23.98;;;12.35;;
37847;SDS011;23688;33.130;-117.188;2023-12-29T00:04:30;23.38;;;12.20;;
37847;SDS011;23688;33.130;-117.188;2023-12-29T00:06:56;26.20;;;12.05;;
37847;SDS011;23688;33.130;-117.188;2023-12-29T00:09:23;21.08;;;11.35;;
37847;SDS011;23688;33.130;-117.188;2023-12-29T00:14:19;26.57;;;11.90;;
37847;SDS011;23688;33.130;-117.188;2023-12-29T00:16:45;24.10;;;12.65;;
37847;SDS011;23688;33.130;-117.188;2023-12-29T00:19:12;22.45;;;12.32;;
37847;SDS011;23688;33.130;-117.188;2023-12-29T00:21:38;24.65;;;12.05;;
37847;SDS011;23688;33.130;-117.188;2023-12-29T00:24:05;24.00;;;12.35;;
37847;SDS011;23688;33.130;-117.188;2023-12-29T00:26:31;26.15;;;12.93;;
37847;SDS011;23688;33.130;-117.188;2023-12-29T00:28:58;25.85;;;13.02;;
37847;SDS011;23688;33.130;-117.188;2023-12-29T00:31:24;26.38;;;11.93;;
37847;SDS011;23688;33.130;-117.188;2023-12-29T00:33:51;23.83;;;12.52;;
37847;SDS011;23688;33.130;-117.188;2023-12-29T00:36:18;23.38;;;12.93;;
37847;SDS011;23688;33.130;-117.188;2023-12-29T00:38:47;24.00;;;12.80;;
37847;SDS011;23688;33.130;-117.188;2023-12-29T00:41:13;30.48;;;13.52;;
37847;SDS011;23688;33.130;-117.188;2023-12-29T00:43:39;28.40;;;13.10;;
37847;SDS011;23688;33.130;-117.188;2023-12-29T00:46:07;25.02;;;13.23;;
37847;SDS011;23688;33.130;-117.188;2023-12-29T00:48:34;24.05;;;12.40;;
37847;SDS011;23688;33.130;-117.188;2023-12-29T00:51:01;27.67;;;13.75;;
37847;SDS011;23688;33.130;-117.188;2023-12-29T00:53:28;22.30;;;12.23;;
37847;SDS011;23688;33.130;-117.188;2023-12-29T00:55:57;23.70;;;12.10;;
37847;SDS011;23688;33.130;-117.188;2023-12-29T00:58:23;31.02;;;12.23;;
37847;SDS011;23688;33.130;-117.188;2023-12-29T01:00:50;40.40;;;14.38;;
37847;SDS011;23688;33.130;-117.188;2023-12-29T01:03:16;24.48;;;10.60;;
37847;SDS011;23688;33.130;-117.188;2023-12-29T01:05:43;20.80;;;11.43;;
37847;SDS011;23688;33.130;-117.188;2023-12-29T01:08:09;27.88;;;12.20;;
37847;SDS011;23688;33.130;-117.188;2023-12-29T01:10:35;25.80;;;10.75;;
37847;SDS011;23688;33.130;-117.188;2023-12-29T01:13:02;29.58;;;12.63;;
37847;SDS011;23688;33.130;-117.188;2023-12-29T01:15:28;25.83;;;11.18;;
37847;SDS011;23688;33.130;-117.188;2023-12-29T01:17:55;22.15;;;11.52;;
37847;SDS011;23688;33.130;-117.188;2023-12-29T01:20:21;32.38;;;12.70;;
37847;SDS011;23688;33.130;-117.188;2023-12-29T01:22:47;31.55;;;12.48;;
37847;SDS011;23688;33.130;-117.188;2023-12-29T01:25:14;30.45;;;12.70;;
37847;SDS011;23688;33.130;-117.188;2023-12-29T01:27:40;34.50;;;14.00;;
37847;SDS011;23688;33.130;-117.188;2023-12-29T01:30:07;44.33;;;14.68;;
37847;SDS011;23688;33.130;-117.188;2023-12-29T01:32:33;32.42;;;14.48;;
37847;SDS011;23688;33.130;-117.188;2023-12-29T01:35:01;25.77;;;14.05;;
37847;SDS011;23688;33.130;-117.188;2023-12-29T01:37:28;25.60;;;15.07;;
37847;SDS011;23688;33.130;-117.188;2023-12-29T01:39:54;30.58;;;14.07;;
37847;SDS011;23688;33.130;-117.188;2023-12-29T01:42:20;37.40;;;14.40;;
37847;SDS011;23688;33.130;-117.188;2023-12-29T01:44:47;29.17;;;14.55;;
37847;SDS011;23688;33.130;-117.188;2023-12-29T01:47:20;34.72;;;16.45;;
37847;SDS011;23688;33.130;-117.188;2023-12-29T01:49:48;41.83;;;18.20;;
37847;SDS011;23688;33.130;-117.188;2023-12-29T01:52:16;37.40;;;17.45;;
37847;SDS011;23688;33.130;-117.188;2023-12-29T01:54:43;37.38;;;18.10;;
37847;SDS011;23688;33.130;-117.188;2023-12-29T01:57:13;34.78;;;18.35;;
37847;SDS011;23688;33.130;-117.188;2023-12-29T01:59:40;54.47;;;28.38;;
37847;SDS011;23688;33.130;-117.188;2023-12-29T02:02:07;42.10;;;18.15;;
37847;SDS011;23688;33.130;-117.188;2023-12-29T02:04:33;53.70;;;22.58;;
37847;SDS011;23688;33.130;-117.188;2023-12-29T02:07:02;39.72;;;16.77;;
37847;SDS011;23688;33.130;-117.188;2023-12-29T02:09:28;41.55;;;18.38;;
37847;SDS011;23688;33.130;-117.188;2023-12-29T02:11:55;34.58;;;16.73;;
37847;SDS011;23688;33.130;-117.188;2023-12-29T02:14:21;41.97;;;18.48;;
37847;SDS011;23688;33.130;-117.188;2023-12-29T02:19:47;36.05;;;17.17;;
37847;SDS011;23688;33.130;-117.188;2023-12-29T02:22:17;44.72;;;18.23;;
37847;SDS011;23688;33.130;-117.188;2023-12-29T02:24:44;34.50;;;17.33;;
37847;SDS011;23688;33.130;-117.188;2023-12-29T02:29:45;37.00;;;17.90;;
37847;SDS011;23688;33.130;-117.188;2023-12-29T02:32:21;54.25;;;16.85;;
37847;SDS011;23688;33.130;-117.188;2023-12-29T02:34:52;30.60;;;15.80;;
37847;SDS011;23688;33.130;-117.188;2023-12-29T02:37:20;28.80;;;15.03;;
37847;SDS011;23688;33.130;-117.188;2023-12-29T02:39:49;40.40;;;17.70;;
37847;SDS011;23688;33.130;-117.188;2023-12-29T02:42:15;44.53;;;17.92;;
37847;SDS011;23688;33.130;-117.188;2023-12-29T02:44:41;48.20;;;18.48;;
37847;SDS011;23688;33.130;-117.188;2023-12-29T02:47:08;46.85;;;17.90;;
37847;SDS011;23688;33.130;-117.188;2023-12-29T02:49:34;46.50;;;18.65;;
37847;SDS011;23688;33.130;-117.188;2023-12-29T02:52:01;37.22;;;15.70;;
37847;SDS011;23688;33.130;-117.188;2023-12-29T02:54:28;34.83;;;16.13;;
37847;SDS011;23688;33.130;-117.188;2023-12-29T02:56:54;32.33;;;15.88;;
37847;SDS011;23688;33.130;-117.188;2023-12-29T02:59:21;35.25;;;16.55;;
37847;SDS011;23688;33.130;-117.188;2023-12-29T03:01:47;38.97;;;16.27;;
37847;SDS011;23688;33.130;-117.188;2023-12-29T03:04:14;39.97;;;19.90;;
37847;SDS011;23688;33.130;-117.188;2023-12-29T03:06:40;46.13;;;18.45;;
37847;SDS011;23688;33.130;-117.188;2023-12-29T03:09:07;41.83;;;18.77;;
37847;SDS011;23688;33.130;-117.188;2023-12-29T03:11:33;41.95;;;19.33;;
37847;SDS011;23688;33.130;-117.188;2023-12-29T03:14:02;36.90;;;18.55;;
37847;SDS011;23688;33.130;-117.188;2023-12-29T03:16:37;34.28;;;16.67;;
37847;SDS011;23688;33.130;-117.188;2023-12-29T03:19:04;32.90;;;17.55;;
37847;SDS011;23688;33.130;-117.188;2023-12-29T03:21:30;41.08;;;18.80;;
37847;SDS011;23688;33.130;-117.188;2023-12-29T03:23:56;41.25;;;20.40;;
37847;SDS011;23688;33.130;-117.188;2023-12-29T03:26:23;49.22;;;21.60;;
37847;SDS011;23688;33.130;-117.188;2023-12-29T03:28:49;52.30;;;23.25;;
37847;SDS011;23688;33.130;-117.188;2023-12-29T03:31:16;44.38;;;21.02;;
37847;SDS011;23688;33.130;-117.188;2023-12-29T03:33:42;41.88;;;20.95;;
37847;SDS011;23688;33.130;-117.188;2023-12-29T03:36:09;49.72;;;22.20;;
37847;SDS011;23688;33.130;-117.188;2023-12-29T03:38:35;61.20;;;23.35;;
37847;SDS011;23688;33.130;-117.188;2023-12-29T03:41:03;53.63;;;26.33;;
37847;SDS011;23688;33.130;-117.188;2023-12-29T03:43:29;52.50;;;25.10;;
37847;SDS011;23688;33.130;-117.188;2023-12-29T03:45:56;53.10;;;26.13;;
37847;SDS011;23688;33.130;-117.188;2023-12-29T03:48:22;47.47;;;25.05;;
37847;SDS011;23688;33.130;-117.188;2023-12-29T03:50:48;60.90;;;25.90;;
37847;SDS011;23688;33.130;-117.188;2023-12-29T03:53:15;50.35;;;25.33;;
37847;SDS011;23688;33.130;-117.188;2023-12-29T03:55:41;49.05;;;23.67;;
37847;SDS011;23688;33.130;-117.188;2023-12-29T03:58:07;58.35;;;27.33;;
37847;SDS011;23688;33.130;-117.188;2023-12-29T04:00:34;60.75;;;27.65;;
37847;SDS011;23688;33.130;-117.188;2023-12-29T04:03:01;52.20;;;26.02;;
37847;SDS011;23688;33.130;-117.188;2023-12-29T04:05:27;53.58;;;25.58;;
37847;SDS011;23688;33.130;-117.188;2023-12-29T04:07:55;53.92;;;27.50;;
37847;SDS011;23688;33.130;-117.188;2023-12-29T04:10:22;60.05;;;29.08;;
37847;SDS011;23688;33.130;-117.188;2023-12-29T04:12:48;54.25;;;27.13;;
37847;SDS011;23688;33.130;-117.188;2023-12-29T04:15:15;57.63;;;27.15;;
37847;SDS011;23688;33.130;-117.188;2023-12-29T04:17:41;56.03;;;25.98;;
37847;SDS011;23688;33.130;-117.188;2023-12-29T04:20:07;42.55;;;24.30;;
37847;SDS011;23688;33.130;-117.188;2023-12-29T04:22:34;50.95;;;26.55;;
37847;SDS011;23688;33.130;-117.188;2023-12-29T04:25:00;62.03;;;29.67;;
37847;SDS011;23688;33.130;-117.188;2023-12-29T04:27:27;63.80;;;29.50;;
37847;SDS011;23688;33.130;-117.188;2023-12-29T04:29:53;59.92;;;29.92;;
37847;SDS011;23688;33.130;-117.188;2023-12-29T04:32:19;58.58;;;28.38;;
37847;SDS011;23688;33.130;-117.188;2023-12-29T04:34:46;69.78;;;32.08;;
37847;SDS011;23688;33.130;-117.188;2023-12-29T04:37:12;58.95;;;30.55;;
37847;SDS011;23688;33.130;-117.188;2023-12-29T04:39:39;61.33;;;31.45;;
37847;SDS011;23688;33.130;-117.188;2023-12-29T04:42:05;63.25;;;33.35;;
37847;SDS011;23688;33.130;-117.188;2023-12-29T04:44:32;81.00;;;35.58;;
37847;SDS011;23688;33.130;-117.188;2023-12-29T04:46:58;75.80;;;35.25;;
37847;SDS011;23688;33.130;-117.188;2023-12-29T04:49:25;83.60;;;39.47;;
37847;SDS011;23688;33.130;-117.188;2023-12-29T04:51:51;89.93;;;41.10;;
37847;SDS011;23688;33.130;-117.188;2023-12-29T04:54:17;93.13;;;43.50;;
37847;SDS011;23688;33.130;-117.188;2023-12-29T04:56:44;99.03;;;45.03;;
37847;SDS011;23688;33.130;-117.188;2023-12-29T04:59:10;97.70;;;44.55;;
37847;SDS011;23688;33.130;-117.188;2023-12-29T05:01:36;114.38;;;47.13;;
37847;SDS011;23688;33.130;-117.188;2023-12-29T05:04:03;94.35;;;43.42;;
37847;SDS011;23688;33.130;-117.188;2023-12-29T05:06:29;97.18;;;46.17;;
37847;SDS011;23688;33.130;-117.188;2023-12-29T05:08:55;83.07;;;44.38;;
37847;SDS011;23688;33.130;-117.188;2023-12-29T05:11:22;85.07;;;44.60;;
37847;SDS011;23688;33.130;-117.188;2023-12-29T05:13:48;93.57;;;47.35;;
37847;SDS011;23688;33.130;-117.188;2023-12-29T05:16:14;96.78;;;48.15;;
37847;SDS011;23688;33.130;-117.188;2023-12-29T05:18:41;115.20;;;49.78;;
37847;SDS011;23688;33.130;-117.188;2023-12-29T05:21:13;96.25;;;47.05;;
37847;SDS011;23688;33.130;-117.188;2023-12-29T05:23:41;116.00;;;50.97;;
37847;SDS011;23688;33.130;-117.188;2023-12-29T05:26:07;104.15;;;50.63;;
37847;SDS011;23688;33.130;-117.188;2023-12-29T05:28:34;105.72;;;51.28;;
37847;SDS011;23688;33.130;-117.188;2023-12-29T05:31:00;112.60;;;50.70;;
37847;SDS011;23688;33.130;-117.188;2023-12-29T05:33:32;111.80;;;53.88;;
37847;SDS011;23688;33.130;-117.188;2023-12-29T05:35:59;108.63;;;51.28;;
37847;SDS011;23688;33.130;-117.188;2023-12-29T05:38:35;115.55;;;51.95;;
37847;SDS011;23688;33.130;-117.188;2023-12-29T05:41:02;114.22;;;52.25;;
37847;SDS011;23688;33.130;-117.188;2023-12-29T05:43:30;112.13;;;50.08;;
37847;SDS011;23688;33.130;-117.188;2023-12-29T05:45:58;131.48;;;53.45;;
37847;SDS011;23688;33.130;-117.188;2023-12-29T05:48:25;138.85;;;47.33;;
37847;SDS011;23688;33.130;-117.188;2023-12-29T05:50:51;151.38;;;49.50;;
37847;SDS011;23688;33.130;-117.188;2023-12-29T05:53:18;136.50;;;46.90;;
37847;SDS011;23688;33.130;-117.188;2023-12-29T05:55:44;136.95;;;50.80;;
37847;SDS011;23688;33.130;-117.188;2023-12-29T05:58:11;173.30;;;48.25;;
37847;SDS011;23688;33.130;-117.188;2023-12-29T06:00:37;126.63;;;47.55;;
37847;SDS011;23688;33.130;-117.188;2023-12-29T06:03:05;124.97;;;45.78;;
37847;SDS011;23688;33.130;-117.188;2023-12-29T06:05:31;168.90;;;49.67;;
37847;SDS011;23688;33.130;-117.188;2023-12-29T06:07:58;182.93;;;43.13;;
37847;SDS011;23688;33.130;-117.188;2023-12-29T06:10:25;122.05;;;43.17;;
37847;SDS011;23688;33.130;-117.188;2023-12-29T06:12:51;192.40;;;44.80;;
37847;SDS011;23688;33.130;-117.188;2023-12-29T06:15:17;145.75;;;47.88;;
37847;SDS011;23688;33.130;-117.188;2023-12-29T06:17:44;118.43;;;46.10;;
37847;SDS011;23688;33.130;-117.188;2023-12-29T06:20:10;116.13;;;45.40;;
37847;SDS011;23688;33.130;-117.188;2023-12-29T06:22:40;103.15;;;44.17;;
37847;SDS011;23688;33.130;-117.188;2023-12-29T06:25:10;129.70;;;46.55;;
37847;SDS011;23688;33.130;-117.188;2023-12-29T06:27:38;119.60;;;47.33;;
37847;SDS011;23688;33.130;-117.188;2023-12-29T06:30:06;125.80;;;45.42;;
37847;SDS011;23688;33.130;-117.188;2023-12-29T06:32:33;106.47;;;43.72;;
37847;SDS011;23688;33.130;-117.188;2023-12-29T06:35:00;120.90;;;44.65;;
37847;SDS011;23688;33.130;-117.188;2023-12-29T06:37:27;115.78;;;45.20;;
37847;SDS011;23688;33.130;-117.188;2023-12-29T06:39:53;116.93;;;46.50;;
37847;SDS011;23688;33.130;-117.188;2023-12-29T06:42:19;134.40;;;48.05;;
37847;SDS011;23688;33.130;-117.188;2023-12-29T06:44:46;129.02;;;46.85;;
37847;SDS011;23688;33.130;-117.188;2023-12-29T06:47:12;139.63;;;47.90;;
37847;SDS011;23688;33.130;-117.188;2023-12-29T06:49:38;151.10;;;47.65;;
37847;SDS011;23688;33.130;-117.188;2023-12-29T06:52:05;238.52;;;47.47;;
37847;SDS011;23688;33.130;-117.188;2023-12-29T06:54:31;158.20;;;41.80;;
37847;SDS011;23688;33.130;-117.188;2023-12-29T06:56:59;152.57;;;42.70;;
37847;SDS011;23688;33.130;-117.188;2023-12-29T06:59:25;171.52;;;40.90;;
37847;SDS011;23688;33.130;-117.188;2023-12-29T07:01:52;170.48;;;42.47;;
37847;SDS011;23688;33.130;-117.188;2023-12-29T07:04:18;143.88;;;40.47;;
37847;SDS011;23688;33.130;-117.188;2023-12-29T07:06:44;111.50;;;42.28;;
37847;SDS011;23688;33.130;-117.188;2023-12-29T07:09:11;91.10;;;39.55;;
37847;SDS011;23688;33.130;-117.188;2023-12-29T07:11:37;105.30;;;45.50;;
37847;SDS011;23688;33.130;-117.188;2023-12-29T07:14:03;99.93;;;42.45;;
37847;SDS011;23688;33.130;-117.188;2023-12-29T07:16:30;98.70;;;43.25;;
37847;SDS011;23688;33.130;-117.188;2023-12-29T07:18:56;85.55;;;40.22;;
37847;SDS011;23688;33.130;-117.188;2023-12-29T07:21:23;110.05;;;39.05;;
37847;SDS011;23688;33.130;-117.188;2023-12-29T07:23:49;89.72;;;40.25;;
37847;SDS011;23688;33.130;-117.188;2023-12-29T07:26:15;87.13;;;38.60;;
37847;SDS011;23688;33.130;-117.188;2023-12-29T07:28:42;99.82;;;40.25;;
37847;SDS011;23688;33.130;-117.188;2023-12-29T07:31:08;94.10;;;40.25;;
37847;SDS011;23688;33.130;-117.188;2023-12-29T07:33:34;98.00;;;41.95;;
37847;SDS011;23688;33.130;-117.188;2023-12-29T07:36:01;112.68;;;41.58;;
37847;SDS011;23688;33.130;-117.188;2023-12-29T07:38:27;105.35;;;40.38;;
37847;SDS011;23688;33.130;-117.188;2023-12-29T07:40:53;81.05;;;39.70;;
37847;SDS011;23688;33.130;-117.188;2023-12-29T07:43:20;87.93;;;40.35;;
37847;SDS011;23688;33.130;-117.188;2023-12-29T07:45:49;80.65;;;38.00;;
37847;SDS011;23688;33.130;-117.188;2023-12-29T07:48:15;95.05;;;40.40;;
37847;SDS011;23688;33.130;-117.188;2023-12-29T07:50:42;78.18;;;36.85;;
37847;SDS011;23688;33.130;-117.188;2023-12-29T07:53:08;81.82;;;37.53;;
37847;SDS011;23688;33.130;-117.188;2023-12-29T07:55:37;78.00;;;37.85;;
37847;SDS011;23688;33.130;-117.188;2023-12-29T07:58:05;76.07;;;37.08;;
37847;SDS011;23688;33.130;-117.188;2023-12-29T08:00:32;73.68;;;34.55;;
37847;SDS011;23688;33.130;-117.188;2023-12-29T08:02:58;61.13;;;31.67;;
37847;SDS011;23688;33.130;-117.188;2023-12-29T08:05:25;65.75;;;31.52;;
37847;SDS011;23688;33.130;-117.188;2023-12-29T08:07:51;62.58;;;30.55;;
37847;SDS011;23688;33.130;-117.188;2023-12-29T08:10:17;70.60;;;31.17;;
37847;SDS011;23688;33.130;-117.188;2023-12-29T08:12:44;68.82;;;33.33;;
37847;SDS011;23688;33.130;-117.188;2023-12-29T08:15:10;77.03;;;35.60;;
37847;SDS011;23688;33.130;-117.188;2023-12-29T08:17:36;67.22;;;32.75;;
37847;SDS011;23688;33.130;-117.188;2023-12-29T08:20:03;68.05;;;31.83;;
37847;SDS011;23688;33.130;-117.188;2023-12-29T08:22:31;73.22;;;33.08;;
37847;SDS011;23688;33.130;-117.188;2023-12-29T08:24:58;64.28;;;31.42;;
37847;SDS011;23688;33.130;-117.188;2023-12-29T08:27:27;63.40;;;33.28;;
37847;SDS011;23688;33.130;-117.188;2023-12-29T08:29:53;65.47;;;32.97;;
37847;SDS011;23688;33.130;-117.188;2023-12-29T08:32:20;71.45;;;32.20;;
37847;SDS011;23688;33.130;-117.188;2023-12-29T08:34:47;63.15;;;31.85;;
37847;SDS011;23688;33.130;-117.188;2023-12-29T08:37:13;63.13;;;32.58;;
37847;SDS011;23688;33.130;-117.188;2023-12-29T08:39:45;64.15;;;31.27;;
37847;SDS011;23688;33.130;-117.188;2023-12-29T08:42:13;59.00;;;30.63;;
37847;SDS011;23688;33.130;-117.188;2023-12-29T08:44:39;59.80;;;27.73;;
37847;SDS011;23688;33.130;-117.188;2023-12-29T08:47:06;51.97;;;27.58;;
37847;SDS011;23688;33.130;-117.188;2023-12-29T08:49:36;58.42;;;29.95;;
37847;SDS011;23688;33.130;-117.188;2023-12-29T08:52:04;59.55;;;28.13;;
37847;SDS011;23688;33.130;-117.188;2023-12-29T08:54:30;65.40;;;31.38;;
37847;SDS011;23688;33.130;-117.188;2023-12-29T08:56:56;60.17;;;31.58;;
37847;SDS011;23688;33.130;-117.188;2023-12-29T08:59:22;65.25;;;31.08;;
37847;SDS011;23688;33.130;-117.188;2023-12-29T09:01:49;59.20;;;30.00;;
37847;SDS011;23688;33.130;-117.188;2023-12-29T09:04:15;57.13;;;30.70;;
37847;SDS011;23688;33.130;-117.188;2023-12-29T09:06:42;67.50;;;32.47;;
37847;SDS011;23688;33.130;-117.188;2023-12-29T09:09:08;59.58;;;30.55;;
37847;SDS011;23688;33.130;-117.188;2023-12-29T09:11:44;61.17;;;30.23;;
37847;SDS011;23688;33.130;-117.188;2023-12-29T09:14:11;54.30;;;29.08;;
37847;SDS011;23688;33.130;-117.188;2023-12-29T09:16:37;67.05;;;29.55;;
37847;SDS011;23688;33.130;-117.188;2023-12-29T09:19:05;59.17;;;30.48;;
37847;SDS011;23688;33.130;-117.188;2023-12-29T09:21:31;55.55;;;29.60;;
37847;SDS011;23688;33.130;-117.188;2023-12-29T09:23:58;56.50;;;29.88;;
37847;SDS011;23688;33.130;-117.188;2023-12-29T09:26:24;51.08;;;29.58;;
37847;SDS011;23688;33.130;-117.188;2023-12-29T09:28:51;52.10;;;28.15;;
37847;SDS011;23688;33.130;-117.188;2023-12-29T09:31:17;54.53;;;27.27;;
37847;SDS011;23688;33.130;-117.188;2023-12-29T09:33:43;51.13;;;26.50;;
37847;SDS011;23688;33.130;-117.188;2023-12-29T09:36:10;44.47;;;26.88;;
37847;SDS011;23688;33.130;-117.188;2023-12-29T09:38:36;51.97;;;27.88;;
37847;SDS011;23688;33.130;-117.188;2023-12-29T09:41:08;54.60;;;27.55;;
37847;SDS011;23688;33.130;-117.188;2023-12-29T09:43:38;49.17;;;26.48;;
37847;SDS011;23688;33.130;-117.188;2023-12-29T09:46:06;46.47;;;27.05;;
37847;SDS011;23688;33.130;-117.188;2023-12-29T09:48:34;51.25;;;28.90;;
37847;SDS011;23688;33.130;-117.188;2023-12-29T09:53:30;45.03;;;26.55;;
37847;SDS011;23688;33.130;-117.188;2023-12-29T09:55:57;49.35;;;26.30;;
37847;SDS011;23688;33.130;-117.188;2023-12-29T09:58:29;47.95;;;25.00;;
37847;SDS011;23688;33.130;-117.188;2023-12-29T10:00:56;44.83;;;25.05;;
37847;SDS011;23688;33.130;-117.188;2023-12-29T10:03:23;44.92;;;24.60;;
37847;SDS011;23688;33.130;-117.188;2023-12-29T10:05:50;43.65;;;24.63;;
37847;SDS011;23688;33.130;-117.188;2023-12-29T10:08:22;46.95;;;25.95;;
37847;SDS011;23688;33.130;-117.188;2023-12-29T10:10:49;38.92;;;24.65;;
37847;SDS011;23688;33.130;-117.188;2023-12-29T10:13:16;43.53;;;24.38;;
37847;SDS011;23688;33.130;-117.188;2023-12-29T10:15:54;41.17;;;23.13;;
37847;SDS011;23688;33.130;-117.188;2023-12-29T10:18:29;36.95;;;21.80;;
37847;SDS011;23688;33.130;-117.188;2023-12-29T10:24:24;38.67;;;20.38;;
37847;SDS011;23688;33.130;-117.188;2023-12-29T10:26:51;41.85;;;22.60;;
37847;SDS011;23688;33.130;-117.188;2023-12-29T10:29:18;44.45;;;23.00;;
37847;SDS011;23688;33.130;-117.188;2023-12-29T10:31:46;39.72;;;20.48;;
37847;SDS011;23688;33.130;-117.188;2023-12-29T10:34:19;36.97;;;20.90;;
37847;SDS011;23688;33.130;-117.188;2023-12-29T10:36:57;40.30;;;21.70;;
37847;SDS011;23688;33.130;-117.188;2023-12-29T10:39:24;37.97;;;20.73;;
37847;SDS011;23688;33.130;-117.188;2023-12-29T10:42:09;33.08;;;19.10;;
37847;SDS011;23688;33.130;-117.188;2023-12-29T10:44:36;41.45;;;22.95;;
37847;SDS011;23688;33.130;-117.188;2023-12-29T10:47:13;41.10;;;22.90;;
37847;SDS011;23688;33.130;-117.188;2023-12-29T10:49:40;41.17;;;22.50;;
37847;SDS011;23688;33.130;-117.188;2023-12-29T10:52:13;32.65;;;20.10;;
37847;SDS011;23688;33.130;-117.188;2023-12-29T10:54:41;37.40;;;19.40;;
37847;SDS011;23688;33.130;-117.188;2023-12-29T10:57:09;45.22;;;22.92;;
37847;SDS011;23688;33.130;-117.188;2023-12-29T10:59:39;42.95;;;24.08;;
37847;SDS011;23688;33.130;-117.188;2023-12-29T11:02:06;41.17;;;24.77;;
37847;SDS011;23688;33.130;-117.188;2023-12-29T11:04:33;40.03;;;23.60;;
37847;SDS011;23688;33.130;-117.188;2023-12-29T11:07:00;42.25;;;23.27;;
37847;SDS011;23688;33.130;-117.188;2023-12-29T11:09:30;39.85;;;23.23;;
37847;SDS011;23688;33.130;-117.188;2023-12-29T11:11:58;40.10;;;21.08;;
37847;SDS011;23688;33.130;-117.188;2023-12-29T11:14:26;40.58;;;22.25;;
37847;SDS011;23688;33.130;-117.188;2023-12-29T11:16:56;41.65;;;21.60;;
37847;SDS011;23688;33.130;-117.188;2023-12-29T11:19:22;35.75;;;21.88;;
37847;SDS011;23688;33.130;-117.188;2023-12-29T11:21:51;42.00;;;22.23;;
37847;SDS011;23688;33.130;-117.188;2023-12-29T11:24:20;37.10;;;20.98;;
37847;SDS011;23688;33.130;-117.188;2023-12-29T11:26:51;31.02;;;19.88;;
37847;SDS011;23688;33.130;-117.188;2023-12-29T11:29:18;38.38;;;19.48;;
37847;SDS011;23688;33.130;-117.188;2023-12-29T11:31:45;35.45;;;19.70;;
37847;SDS011;23688;33.130;-117.188;2023-12-29T11:34:27;30.70;;;19.35;;
37847;SDS011;23688;33.130;-117.188;2023-12-29T11:37:28;38.60;;;21.58;;
37847;SDS011;23688;33.130;-117.188;2023-12-29T11:40:11;36.17;;;19.00;;
37847;SDS011;23688;33.130;-117.188;2023-12-29T11:42:45;41.55;;;20.05;;
37847;SDS011;23688;33.130;-117.188;2023-12-29T11:45:24;35.85;;;20.02;;
37847;SDS011;23688;33.130;-117.188;2023-12-29T11:47:51;32.25;;;19.67;;
37847;SDS011;23688;33.130;-117.188;2023-12-29T11:50:32;35.78;;;19.67;;
37847;SDS011;23688;33.130;-117.188;2023-12-29T11:53:02;34.83;;;20.00;;
37847;SDS011;23688;33.130;-117.188;2023-12-29T11:55:29;32.13;;;20.13;;
37847;SDS011;23688;33.130;-117.188;2023-12-29T11:57:58;32.80;;;19.55;;
37847;SDS011;23688;33.130;-117.188;2023-12-29T12:00:44;33.90;;;19.77;;
37847;SDS011;23688;33.130;-117.188;2023-12-29T12:05:51;32.38;;;21.27;;
37847;SDS011;23688;33.130;-117.188;2023-12-29T12:13:56;31.95;;;19.25;;
37847;SDS011;23688;33.130;-117.188;2023-12-29T12:19:10;32.30;;;18.80;;
37847;SDS011;23688;33.130;-117.188;2023-12-29T12:21:38;38.35;;;19.27;;
37847;SDS011;23688;33.130;-117.188;2023-12-29T12:24:05;36.65;;;19.13;;
37847;SDS011;23688;33.130;-117.188;2023-12-29T12:26:32;31.20;;;17.63;;
37847;SDS011;23688;33.130;-117.188;2023-12-29T12:29:00;31.38;;;17.98;;
37847;SDS011;23688;33.130;-117.188;2023-12-29T12:31:27;30.30;;;15.52;;
37847;SDS011;23688;33.130;-117.188;2023-12-29T12:33:54;28.50;;;15.48;;
37847;SDS011;23688;33.130;-117.188;2023-12-29T12:36:25;24.42;;;15.75;;
37847;SDS011;23688;33.130;-117.188;2023-12-29T12:41:21;23.33;;;15.63;;
37847;SDS011;23688;33.130;-117.188;2023-12-29T12:44:08;31.52;;;17.25;;
37847;SDS011;23688;33.130;-117.188;2023-12-29T12:46:39;29.60;;;16.98;;
37847;SDS011;23688;33.130;-117.188;2023-12-29T12:49:18;29.05;;;15.38;;
37847;SDS011;23688;33.130;-117.188;2023-12-29T12:51:46;25.80;;;15.35;;
37847;SDS011;23688;33.130;-117.188;2023-12-29T12:54:13;28.15;;;15.05;;
37847;SDS011;23688;33.130;-117.188;2023-12-29T12:56:43;22.85;;;13.80;;
37847;SDS011;23688;33.130;-117.188;2023-12-29T12:59:10;32.72;;;14.30;;
37847;SDS011;23688;33.130;-117.188;2023-12-29T13:01:37;24.42;;;13.75;;
37847;SDS011;23688;33.130;-117.188;2023-12-29T13:04:04;29.35;;;15.85;;
37847;SDS011;23688;33.130;-117.188;2023-12-29T13:09:00;21.73;;;12.63;;
37847;SDS011;23688;33.130;-117.188;2023-12-29T13:11:33;20.58;;;13.80;;
37847;SDS011;23688;33.130;-117.188;2023-12-29T13:14:00;20.98;;;14.18;;
37847;SDS011;23688;33.130;-117.188;2023-12-29T13:16:34;24.65;;;14.77;;
37847;SDS011;23688;33.130;-117.188;2023-12-29T13:19:18;25.42;;;13.63;;
37847;SDS011;23688;33.130;-117.188;2023-12-29T13:21:52;22.45;;;13.40;;
37847;SDS011;23688;33.130;-117.188;2023-12-29T13:24:23;20.10;;;13.18;;
37847;SDS011;23688;33.130;-117.188;2023-12-29T13:26:51;22.67;;;12.88;;
37847;SDS011;23688;33.130;-117.188;2023-12-29T13:29:21;21.40;;;12.65;;
37847;SDS011;23688;33.130;-117.188;2023-12-29T13:31:50;24.30;;;12.82;;
37847;SDS011;23688;33.130;-117.188;2023-12-29T13:34:21;18.80;;;12.27;;
37847;SDS011;23688;33.130;-117.188;2023-12-29T13:37:05;16.92;;;11.43;;
37847;SDS011;23688;33.130;-117.188;2023-12-29T13:39:55;20.73;;;10.95;;
37847;SDS011;23688;33.130;-117.188;2023-12-29T13:42:34;19.58;;;10.15;;
37847;SDS011;23688;33.130;-117.188;2023-12-29T13:45:02;23.57;;;10.90;;
37847;SDS011;23688;33.130;-117.188;2023-12-29T13:47:31;18.58;;;11.15;;
37847;SDS011;23688;33.130;-117.188;2023-12-29T13:49:58;18.15;;;11.35;;
37847;SDS011;23688;33.130;-117.188;2023-12-29T13:52:25;19.65;;;12.15;;
37847;SDS011;23688;33.130;-117.188;2023-12-29T13:54:51;29.20;;;13.02;;
37847;SDS011;23688;33.130;-117.188;2023-12-29T13:57:17;23.92;;;13.70;;
37847;SDS011;23688;33.130;-117.188;2023-12-29T13:59:44;17.40;;;11.52;;
37847;SDS011;23688;33.130;-117.188;2023-12-29T14:08:23;19.83;;;12.50;;
37847;SDS011;23688;33.130;-117.188;2023-12-29T14:11:08;23.70;;;13.00;;
37847;SDS011;23688;33.130;-117.188;2023-12-29T14:13:35;19.88;;;12.95;;
37847;SDS011;23688;33.130;-117.188;2023-12-29T14:16:07;21.17;;;12.32;;
37847;SDS011;23688;33.130;-117.188;2023-12-29T14:18:42;19.73;;;12.35;;
37847;SDS011;23688;33.130;-117.188;2023-12-29T14:21:31;19.23;;;11.35;;
37847;SDS011;23688;33.130;-117.188;2023-12-29T14:24:05;22.10;;;12.82;;
37847;SDS011;23688;33.130;-117.188;2023-12-29T14:26:36;24.90;;;12.27;;